sensor_id;sensor_type;location;lat;lon;timestamp;temperature;humidity
3994;DHT22;2011;48.238;13.948;2022-07-01T00:01:00;20.70;99.90
3994;DHT22;2011;48.238;13.948;2022-07-01T00:03:27;20.60;99.90
3994;DHT22;2011;48.238;13.948;2022-07-01T00:05:54;20.60;99.90
3994;DHT22;2011;48.238;13.948;2022-07-01T00:08:21;20.70;99.90
3994;DHT22;2011;48.238;13.948;2022-07-01T00:10:48;20.70;99.90
3994;DHT22;2011;48.238;13.948;2022-07-01T00:13:15;20.80;99.90
3994;DHT22;2011;48.238;13.948;2022-07-01T00:15:43;20.80;99.90
3994;DHT22;2011;48.238;13.948;2022-07-01T00:18:11;20.70;99.90
3994;DHT22;2011;48.238;13.948;2022-07-01T00:20:38;20.60;99.90
3994;DHT22;2011;48.238;13.948;2022-07-01T00:23:05;20.60;99.90
3994;DHT22;2011;48.238;13.948;2022-07-01T00:25:32;20.60;99.90
3994;DHT22;2011;48.238;13.948;2022-07-01T00:27:59;20.50;99.90
3994;DHT22;2011;48.238;13.948;2022-07-01T00:30:26;20.50;99.90
3994;DHT22;2011;48.238;13.948;2022-07-01T00:32:53;20.50;99.90
3994;DHT22;2011;48.238;13.948;2022-07-01T00:35:22;20.50;99.90
3994;DHT22;2011;48.238;13.948;2022-07-01T00:37:49;20.50;99.90
3994;DHT22;2011;48.238;13.948;2022-07-01T00:40:16;20.50;99.90
3994;DHT22;2011;48.238;13.948;2022-07-01T00:42:43;20.40;99.90
3994;DHT22;2011;48.238;13.948;2022-07-01T00:45:10;20.40;99.90
3994;DHT22;2011;48.238;13.948;2022-07-01T00:47:39;20.30;99.90
3994;DHT22;2011;48.238;13.948;2022-07-01T00:50:08;20.30;99.90
3994;DHT22;2011;48.238;13.948;2022-07-01T00:52:37;20.30;99.90
3994;DHT22;2011;48.238;13.948;2022-07-01T00:55:07;20.20;99.90
3994;DHT22;2011;48.238;13.948;2022-07-01T00:57:37;20.20;99.90
3994;DHT22;2011;48.238;13.948;2022-07-01T01:00:06;20.20;99.90
3994;DHT22;2011;48.238;13.948;2022-07-01T01:02:34;20.20;99.90
3994;DHT22;2011;48.238;13.948;2022-07-01T01:05:02;20.10;99.90
3994;DHT22;2011;48.238;13.948;2022-07-01T01:07:29;20.10;99.90
3994;DHT22;2011;48.238;13.948;2022-07-01T01:09:59;20.00;99.90
3994;DHT22;2011;48.238;13.948;2022-07-01T01:12:27;19.90;99.90
3994;DHT22;2011;48.238;13.948;2022-07-01T01:14:56;19.70;99.90
3994;DHT22;2011;48.238;13.948;2022-07-01T01:17:24;19.70;99.90
3994;DHT22;2011;48.238;13.948;2022-07-01T01:19:51;19.80;99.90
3994;DHT22;2011;48.238;13.948;2022-07-01T01:22:20;19.80;99.90
3994;DHT22;2011;48.238;13.948;2022-07-01T01:24:48;19.70;99.90
3994;DHT22;2011;48.238;13.948;2022-07-01T01:27:15;19.70;99.90
3994;DHT22;2011;48.238;13.948;2022-07-01T01:29:43;19.60;99.90
3994;DHT22;2011;48.238;13.948;2022-07-01T01:32:10;19.60;99.90
3994;DHT22;2011;48.238;13.948;2022-07-01T01:34:38;19.70;99.90
3994;DHT22;2011;48.238;13.948;2022-07-01T01:37:06;19.70;99.90
3994;DHT22;2011;48.238;13.948;2022-07-01T01:39:35;19.70;99.90
3994;DHT22;2011;48.238;13.948;2022-07-01T01:42:04;19.80;99.90
3994;DHT22;2011;48.238;13.948;2022-07-01T01:44:31;19.80;99.90
3994;DHT22;2011;48.238;13.948;2022-07-01T01:46:58;19.80;99.90
3994;DHT22;2011;48.238;13.948;2022-07-01T01:49:25;19.80;99.90
3994;DHT22;2011;48.238;13.948;2022-07-01T01:51:53;19.90;99.90
3994;DHT22;2011;48.238;13.948;2022-07-01T01:54:20;19.90;99.90
3994;DHT22;2011;48.238;13.948;2022-07-01T01:56:49;20.00;99.90
3994;DHT22;2011;48.238;13.948;2022-07-01T01:59:15;20.00;99.90
3994;DHT22;2011;48.238;13.948;2022-07-01T02:01:42;20.00;99.90
3994;DHT22;2011;48.238;13.948;2022-07-01T02:04:10;19.90;99.90
3994;DHT22;2011;48.238;13.948;2022-07-01T02:06:37;19.60;99.90
3994;DHT22;2011;48.238;13.948;2022-07-01T02:09:06;19.50;99.90
3994;DHT22;2011;48.238;13.948;2022-07-01T02:11:34;19.40;99.90
3994;DHT22;2011;48.238;13.948;2022-07-01T02:14:03;19.40;99.90
3994;DHT22;2011;48.238;13.948;2022-07-01T02:16:30;19.40;99.90
3994;DHT22;2011;48.238;13.948;2022-07-01T02:18:57;19.40;99.90
3994;DHT22;2011;48.238;13.948;2022-07-01T02:21:24;19.40;99.90
3994;DHT22;2011;48.238;13.948;2022-07-01T02:23:51;19.40;99.90
3994;DHT22;2011;48.238;13.948;2022-07-01T02:26:19;19.50;99.90
3994;DHT22;2011;48.238;13.948;2022-07-01T02:28:46;19.50;99.90
3994;DHT22;2011;48.238;13.948;2022-07-01T02:31:14;19.50;99.90
3994;DHT22;2011;48.238;13.948;2022-07-01T02:33:42;19.50;99.90
3994;DHT22;2011;48.238;13.948;2022-07-01T02:36:09;19.50;99.90
3994;DHT22;2011;48.238;13.948;2022-07-01T02:38:36;19.60;99.90
3994;DHT22;2011;48.238;13.948;2022-07-01T02:41:03;19.60;99.90
3994;DHT22;2011;48.238;13.948;2022-07-01T02:43:30;19.50;99.90
3994;DHT22;2011;48.238;13.948;2022-07-01T02:45:57;19.50;99.90
3994;DHT22;2011;48.238;13.948;2022-07-01T02:48:25;19.50;99.90
3994;DHT22;2011;48.238;13.948;2022-07-01T02:50:52;19.50;99.90
3994;DHT22;2011;48.238;13.948;2022-07-01T02:53:19;19.50;99.90
3994;DHT22;2011;48.238;13.948;2022-07-01T02:55:47;19.50;99.90
3994;DHT22;2011;48.238;13.948;2022-07-01T02:58:14;19.50;99.90
3994;DHT22;2011;48.238;13.948;2022-07-01T03:00:41;19.50;99.90
3994;DHT22;2011;48.238;13.948;2022-07-01T03:03:08;19.50;99.90
3994;DHT22;2011;48.238;13.948;2022-07-01T03:05:36;19.50;99.90
3994;DHT22;2011;48.238;13.948;2022-07-01T03:08:04;19.40;99.90
3994;DHT22;2011;48.238;13.948;2022-07-01T03:10:31;19.40;99.90
3994;DHT22;2011;48.238;13.948;2022-07-01T03:12:58;19.40;99.90
3994;DHT22;2011;48.238;13.948;2022-07-01T03:15:27;19.40;99.90
3994;DHT22;2011;48.238;13.948;2022-07-01T03:17:55;19.40;99.90
3994;DHT22;2011;48.238;13.948;2022-07-01T03:20:22;19.40;99.90
3994;DHT22;2011;48.238;13.948;2022-07-01T03:22:50;19.40;99.90
3994;DHT22;2011;48.238;13.948;2022-07-01T03:25:17;19.30;99.90
3994;DHT22;2011;48.238;13.948;2022-07-01T03:27:44;19.30;99.90
3994;DHT22;2011;48.238;13.948;2022-07-01T03:30:14;19.20;99.90
3994;DHT22;2011;48.238;13.948;2022-07-01T03:32:42;19.30;99.90
3994;DHT22;2011;48.238;13.948;2022-07-01T03:35:09;19.30;99.90
3994;DHT22;2011;48.238;13.948;2022-07-01T03:37:56;19.30;99.90
3994;DHT22;2011;48.238;13.948;2022-07-01T03:40:23;19.30;99.90
3994;DHT22;2011;48.238;13.948;2022-07-01T03:42:50;19.30;99.90
3994;DHT22;2011;48.238;13.948;2022-07-01T03:45:17;19.30;99.90
3994;DHT22;2011;48.238;13.948;2022-07-01T03:47:48;19.40;99.90
3994;DHT22;2011;48.238;13.948;2022-07-01T03:50:15;19.40;99.90
3994;DHT22;2011;48.238;13.948;2022-07-01T03:52:43;19.30;99.90
3994;DHT22;2011;48.238;13.948;2022-07-01T03:55:12;19.30;99.90
3994;DHT22;2011;48.238;13.948;2022-07-01T03:57:38;19.40;99.90
3994;DHT22;2011;48.238;13.948;2022-07-01T04:00:07;19.40;99.90
3994;DHT22;2011;48.238;13.948;2022-07-01T04:02:34;19.40;99.90
3994;DHT22;2011;48.238;13.948;2022-07-01T04:05:01;19.40;99.90
3994;DHT22;2011;48.238;13.948;2022-07-01T04:07:28;19.40;99.90
3994;DHT22;2011;48.238;13.948;2022-07-01T04:09:55;19.50;99.90
3994;DHT22;2011;48.238;13.948;2022-07-01T04:12:24;19.50;99.90
3994;DHT22;2011;48.238;13.948;2022-07-01T04:14:51;19.50;99.90
3994;DHT22;2011;48.238;13.948;2022-07-01T04:17:18;19.60;99.90
3994;DHT22;2011;48.238;13.948;2022-07-01T04:19:45;19.60;99.90
3994;DHT22;2011;48.238;13.948;2022-07-01T04:22:12;19.60;99.90
3994;DHT22;2011;48.238;13.948;2022-07-01T04:24:56;19.70;99.90
3994;DHT22;2011;48.238;13.948;2022-07-01T04:27:25;19.70;99.90
3994;DHT22;2011;48.238;13.948;2022-07-01T04:29:52;19.80;99.90
3994;DHT22;2011;48.238;13.948;2022-07-01T04:32:18;19.80;99.90
3994;DHT22;2011;48.238;13.948;2022-07-01T04:34:45;19.80;99.90
3994;DHT22;2011;48.238;13.948;2022-07-01T04:37:12;19.80;99.90
3994;DHT22;2011;48.238;13.948;2022-07-01T04:39:40;19.80;99.90
3994;DHT22;2011;48.238;13.948;2022-07-01T04:42:07;19.80;99.90
3994;DHT22;2011;48.238;13.948;2022-07-01T04:44:36;19.80;99.90
3994;DHT22;2011;48.238;13.948;2022-07-01T04:47:05;19.70;99.90
3994;DHT22;2011;48.238;13.948;2022-07-01T04:49:32;19.70;99.90
3994;DHT22;2011;48.238;13.948;2022-07-01T04:51:59;19.80;99.90
3994;DHT22;2011;48.238;13.948;2022-07-01T04:54:26;19.80;99.90
3994;DHT22;2011;48.238;13.948;2022-07-01T04:56:53;19.80;99.90
3994;DHT22;2011;48.238;13.948;2022-07-01T04:59:20;19.80;99.90
3994;DHT22;2011;48.238;13.948;2022-07-01T05:01:49;19.80;99.90
3994;DHT22;2011;48.238;13.948;2022-07-01T05:04:16;19.90;99.90
3994;DHT22;2011;48.238;13.948;2022-07-01T05:06:44;19.90;99.90
3994;DHT22;2011;48.238;13.948;2022-07-01T05:09:11;19.90;99.90
3994;DHT22;2011;48.238;13.948;2022-07-01T05:11:38;19.90;99.90
3994;DHT22;2011;48.238;13.948;2022-07-01T05:14:06;19.90;99.90
3994;DHT22;2011;48.238;13.948;2022-07-01T05:16:33;20.00;99.90
3994;DHT22;2011;48.238;13.948;2022-07-01T05:19:01;20.00;99.90
3994;DHT22;2011;48.238;13.948;2022-07-01T05:21:46;20.00;99.90
3994;DHT22;2011;48.238;13.948;2022-07-01T05:24:22;19.90;99.90
3994;DHT22;2011;48.238;13.948;2022-07-01T05:26:50;19.90;99.90
3994;DHT22;2011;48.238;13.948;2022-07-01T05:29:17;20.00;99.90
3994;DHT22;2011;48.238;13.948;2022-07-01T05:31:43;19.90;99.90
3994;DHT22;2011;48.238;13.948;2022-07-01T05:34:12;19.90;99.90
3994;DHT22;2011;48.238;13.948;2022-07-01T05:36:39;19.90;99.90
3994;DHT22;2011;48.238;13.948;2022-07-01T05:39:06;19.90;99.90
3994;DHT22;2011;48.238;13.948;2022-07-01T05:41:33;19.90;99.90
3994;DHT22;2011;48.238;13.948;2022-07-01T05:44:01;20.00;99.90
3994;DHT22;2011;48.238;13.948;2022-07-01T05:46:28;20.00;99.90
3994;DHT22;2011;48.238;13.948;2022-07-01T05:48:54;20.10;99.90
3994;DHT22;2011;48.238;13.948;2022-07-01T05:51:23;20.00;99.90
3994;DHT22;2011;48.238;13.948;2022-07-01T05:53:50;20.00;99.90
3994;DHT22;2011;48.238;13.948;2022-07-01T05:56:17;20.00;99.90
3994;DHT22;2011;48.238;13.948;2022-07-01T05:58:43;20.10;99.90
3994;DHT22;2011;48.238;13.948;2022-07-01T06:01:10;20.10;99.90
3994;DHT22;2011;48.238;13.948;2022-07-01T06:03:37;20.10;99.90
3994;DHT22;2011;48.238;13.948;2022-07-01T06:06:04;20.10;99.90
3994;DHT22;2011;48.238;13.948;2022-07-01T06:08:34;20.20;99.90
3994;DHT22;2011;48.238;13.948;2022-07-01T06:11:01;20.20;99.90
3994;DHT22;2011;48.238;13.948;2022-07-01T06:13:29;20.30;99.90
3994;DHT22;2011;48.238;13.948;2022-07-01T06:15:56;20.40;99.90
3994;DHT22;2011;48.238;13.948;2022-07-01T06:18:24;20.40;99.90
3994;DHT22;2011;48.238;13.948;2022-07-01T06:20:51;20.50;99.90
3994;DHT22;2011;48.238;13.948;2022-07-01T06:23:18;20.50;99.90
3994;DHT22;2011;48.238;13.948;2022-07-01T06:25:47;20.50;99.90
3994;DHT22;2011;48.238;13.948;2022-07-01T06:28:14;20.40;99.90
3994;DHT22;2011;48.238;13.948;2022-07-01T06:30:41;20.40;99.90
3994;DHT22;2011;48.238;13.948;2022-07-01T06:33:11;20.30;99.90
3994;DHT22;2011;48.238;13.948;2022-07-01T06:35:38;20.30;99.90
3994;DHT22;2011;48.238;13.948;2022-07-01T06:38:06;20.20;99.90
3994;DHT22;2011;48.238;13.948;2022-07-01T06:40:33;20.20;99.90
3994;DHT22;2011;48.238;13.948;2022-07-01T06:43:01;20.30;99.90
3994;DHT22;2011;48.238;13.948;2022-07-01T06:45:28;20.30;99.90
3994;DHT22;2011;48.238;13.948;2022-07-01T06:47:55;20.40;99.90
3994;DHT22;2011;48.238;13.948;2022-07-01T06:50:22;20.40;99.90
3994;DHT22;2011;48.238;13.948;2022-07-01T06:52:49;20.50;99.90
3994;DHT22;2011;48.238;13.948;2022-07-01T06:55:16;20.50;99.90
3994;DHT22;2011;48.238;13.948;2022-07-01T06:57:43;20.60;99.90
3994;DHT22;2011;48.238;13.948;2022-07-01T07:00:13;20.70;99.90
3994;DHT22;2011;48.238;13.948;2022-07-01T07:02:40;20.70;99.90
3994;DHT22;2011;48.238;13.948;2022-07-01T07:05:08;20.80;99.90
3994;DHT22;2011;48.238;13.948;2022-07-01T07:07:35;20.90;99.90
3994;DHT22;2011;48.238;13.948;2022-07-01T07:10:03;21.00;99.90
3994;DHT22;2011;48.238;13.948;2022-07-01T07:12:30;21.10;99.90
3994;DHT22;2011;48.238;13.948;2022-07-01T07:14:57;21.20;99.90
3994;DHT22;2011;48.238;13.948;2022-07-01T07:17:26;21.20;99.90
3994;DHT22;2011;48.238;13.948;2022-07-01T07:19:53;21.20;99.90
3994;DHT22;2011;48.238;13.948;2022-07-01T07:22:21;21.10;99.90
3994;DHT22;2011;48.238;13.948;2022-07-01T07:24:48;21.20;99.90
3994;DHT22;2011;48.238;13.948;2022-07-01T07:27:15;21.30;99.90
3994;DHT22;2011;48.238;13.948;2022-07-01T07:29:42;21.40;99.90
3994;DHT22;2011;48.238;13.948;2022-07-01T07:32:09;21.40;99.90
3994;DHT22;2011;48.238;13.948;2022-07-01T07:34:38;21.50;99.90
3994;DHT22;2011;48.238;13.948;2022-07-01T07:37:05;21.50;99.90
3994;DHT22;2011;48.238;13.948;2022-07-01T07:39:32;21.70;99.90
3994;DHT22;2011;48.238;13.948;2022-07-01T07:41:59;21.70;99.90
3994;DHT22;2011;48.238;13.948;2022-07-01T07:44:26;21.80;99.90
3994;DHT22;2011;48.238;13.948;2022-07-01T07:46:53;22.00;99.90
3994;DHT22;2011;48.238;13.948;2022-07-01T07:49:20;21.90;99.90
3994;DHT22;2011;48.238;13.948;2022-07-01T07:51:48;22.00;99.90
3994;DHT22;2011;48.238;13.948;2022-07-01T07:54:15;22.00;99.90
3994;DHT22;2011;48.238;13.948;2022-07-01T07:56:43;22.10;99.90
3994;DHT22;2011;48.238;13.948;2022-07-01T07:59:10;22.20;99.90
3994;DHT22;2011;48.238;13.948;2022-07-01T08:01:37;22.20;99.90
3994;DHT22;2011;48.238;13.948;2022-07-01T08:04:04;22.30;99.90
3994;DHT22;2011;48.238;13.948;2022-07-01T08:06:31;22.40;99.90
3994;DHT22;2011;48.238;13.948;2022-07-01T08:08:59;22.40;99.90
3994;DHT22;2011;48.238;13.948;2022-07-01T08:11:26;22.50;99.90
3994;DHT22;2011;48.238;13.948;2022-07-01T08:13:53;22.60;99.90
3994;DHT22;2011;48.238;13.948;2022-07-01T08:16:20;22.50;99.90
3994;DHT22;2011;48.238;13.948;2022-07-01T08:18:47;22.50;99.90
3994;DHT22;2011;48.238;13.948;2022-07-01T08:21:14;22.70;99.90
3994;DHT22;2011;48.238;13.948;2022-07-01T08:23:41;22.90;99.90
3994;DHT22;2011;48.238;13.948;2022-07-01T08:26:10;23.00;99.90
3994;DHT22;2011;48.238;13.948;2022-07-01T08:28:39;23.00;99.90
3994;DHT22;2011;48.238;13.948;2022-07-01T08:31:09;23.10;99.90
3994;DHT22;2011;48.238;13.948;2022-07-01T08:33:36;23.20;99.90
3994;DHT22;2011;48.238;13.948;2022-07-01T08:36:04;23.30;99.90
3994;DHT22;2011;48.238;13.948;2022-07-01T08:38:31;23.30;99.90
3994;DHT22;2011;48.238;13.948;2022-07-01T08:40:58;23.40;99.90
3994;DHT22;2011;48.238;13.948;2022-07-01T08:43:28;23.50;99.90
3994;DHT22;2011;48.238;13.948;2022-07-01T08:45:55;23.40;99.90
3994;DHT22;2011;48.238;13.948;2022-07-01T08:48:25;23.30;99.90
3994;DHT22;2011;48.238;13.948;2022-07-01T08:50:52;23.30;99.90
3994;DHT22;2011;48.238;13.948;2022-07-01T08:53:19;23.30;99.90
3994;DHT22;2011;48.238;13.948;2022-07-01T08:55:46;23.50;99.90
3994;DHT22;2011;48.238;13.948;2022-07-01T08:58:32;23.70;99.90
3994;DHT22;2011;48.238;13.948;2022-07-01T09:01:12;23.70;99.90
3994;DHT22;2011;48.238;13.948;2022-07-01T09:03:39;23.80;99.90
3994;DHT22;2011;48.238;13.948;2022-07-01T09:06:11;24.10;99.90
3994;DHT22;2011;48.238;13.948;2022-07-01T09:08:39;24.30;99.90
3994;DHT22;2011;48.238;13.948;2022-07-01T09:11:16;24.70;99.90
3994;DHT22;2011;48.238;13.948;2022-07-01T09:14:04;24.90;99.90
3994;DHT22;2011;48.238;13.948;2022-07-01T09:16:39;24.80;99.90
3994;DHT22;2011;48.238;13.948;2022-07-01T09:19:07;24.70;99.90
3994;DHT22;2011;48.238;13.948;2022-07-01T09:21:34;24.80;99.90
3994;DHT22;2011;48.238;13.948;2022-07-01T09:24:04;24.80;99.90
3994;DHT22;2011;48.238;13.948;2022-07-01T09:26:31;24.90;99.90
3994;DHT22;2011;48.238;13.948;2022-07-01T09:29:00;25.20;99.90
3994;DHT22;2011;48.238;13.948;2022-07-01T09:31:33;25.30;99.90
3994;DHT22;2011;48.238;13.948;2022-07-01T09:34:04;25.30;99.90
3994;DHT22;2011;48.238;13.948;2022-07-01T09:36:32;25.30;99.90
3994;DHT22;2011;48.238;13.948;2022-07-01T09:39:03;25.30;99.90
3994;DHT22;2011;48.238;13.948;2022-07-01T09:41:35;25.40;99.90
3994;DHT22;2011;48.238;13.948;2022-07-01T09:44:06;25.30;99.90
3994;DHT22;2011;48.238;13.948;2022-07-01T09:46:33;25.20;99.90
3994;DHT22;2011;48.238;13.948;2022-07-01T09:49:00;25.20;99.90
3994;DHT22;2011;48.238;13.948;2022-07-01T09:51:27;25.20;99.90
3994;DHT22;2011;48.238;13.948;2022-07-01T09:53:55;25.30;99.90
3994;DHT22;2011;48.238;13.948;2022-07-01T09:56:22;25.40;99.90
3994;DHT22;2011;48.238;13.948;2022-07-01T09:58:50;25.40;99.90
3994;DHT22;2011;48.238;13.948;2022-07-01T10:01:18;25.60;99.90
3994;DHT22;2011;48.238;13.948;2022-07-01T10:03:46;25.60;99.90
3994;DHT22;2011;48.238;13.948;2022-07-01T10:06:34;25.90;99.90
3994;DHT22;2011;48.238;13.948;2022-07-01T10:09:22;26.10;99.90
3994;DHT22;2011;48.238;13.948;2022-07-01T10:12:06;26.30;99.90
3994;DHT22;2011;48.238;13.948;2022-07-01T10:14:39;26.30;99.90
3994;DHT22;2011;48.238;13.948;2022-07-01T10:17:08;26.00;99.90
3994;DHT22;2011;48.238;13.948;2022-07-01T10:19:35;25.90;99.90
3994;DHT22;2011;48.238;13.948;2022-07-01T10:22:25;26.00;99.90
3994;DHT22;2011;48.238;13.948;2022-07-01T10:24:53;25.70;99.90
3994;DHT22;2011;48.238;13.948;2022-07-01T10:27:20;25.60;99.90
3994;DHT22;2011;48.238;13.948;2022-07-01T10:29:48;25.30;99.90
3994;DHT22;2011;48.238;13.948;2022-07-01T10:32:27;25.20;99.90
3994;DHT22;2011;48.238;13.948;2022-07-01T10:35:04;25.20;99.90
3994;DHT22;2011;48.238;13.948;2022-07-01T10:37:31;25.30;99.90
3994;DHT22;2011;48.238;13.948;2022-07-01T10:39:59;25.30;99.90
3994;DHT22;2011;48.238;13.948;2022-07-01T10:42:30;25.40;99.90
3994;DHT22;2011;48.238;13.948;2022-07-01T10:45:05;25.40;99.90
3994;DHT22;2011;48.238;13.948;2022-07-01T10:47:34;25.30;99.90
3994;DHT22;2011;48.238;13.948;2022-07-01T10:50:12;25.40;99.90
3994;DHT22;2011;48.238;13.948;2022-07-01T10:52:59;25.40;99.90
3994;DHT22;2011;48.238;13.948;2022-07-01T10:55:36;25.30;99.90
3994;DHT22;2011;48.238;13.948;2022-07-01T10:58:03;25.30;99.90
3994;DHT22;2011;48.238;13.948;2022-07-01T11:00:32;25.40;99.90
3994;DHT22;2011;48.238;13.948;2022-07-01T11:03:16;25.70;99.90
3994;DHT22;2011;48.238;13.948;2022-07-01T11:05:45;25.80;99.90
3994;DHT22;2011;48.238;13.948;2022-07-01T11:08:12;25.60;99.90
3994;DHT22;2011;48.238;13.948;2022-07-01T11:10:41;25.30;99.90
3994;DHT22;2011;48.238;13.948;2022-07-01T11:13:13;25.20;99.90
3994;DHT22;2011;48.238;13.948;2022-07-01T11:15:40;25.20;99.90
3994;DHT22;2011;48.238;13.948;2022-07-01T11:18:07;25.20;99.90
3994;DHT22;2011;48.238;13.948;2022-07-01T11:20:36;25.00;99.90
3994;DHT22;2011;48.238;13.948;2022-07-01T11:23:03;25.20;99.90
3994;DHT22;2011;48.238;13.948;2022-07-01T11:25:30;25.30;99.90
3994;DHT22;2011;48.238;13.948;2022-07-01T11:27:58;25.20;99.90
3994;DHT22;2011;48.238;13.948;2022-07-01T11:30:25;25.20;99.90
3994;DHT22;2011;48.238;13.948;2022-07-01T11:32:54;25.20;99.90
3994;DHT22;2011;48.238;13.948;2022-07-01T11:35:23;25.00;99.90
3994;DHT22;2011;48.238;13.948;2022-07-01T11:38:11;24.70;99.90
3994;DHT22;2011;48.238;13.948;2022-07-01T11:40:57;24.80;99.90
3994;DHT22;2011;48.238;13.948;2022-07-01T11:43:26;24.80;99.90
3994;DHT22;2011;48.238;13.948;2022-07-01T11:45:54;24.90;99.90
3994;DHT22;2011;48.238;13.948;2022-07-01T11:48:33;25.20;99.90
3994;DHT22;2011;48.238;13.948;2022-07-01T11:51:03;25.30;99.90
3994;DHT22;2011;48.238;13.948;2022-07-01T11:53:33;25.30;99.90
3994;DHT22;2011;48.238;13.948;2022-07-01T11:56:00;25.30;99.90
3994;DHT22;2011;48.238;13.948;2022-07-01T11:58:41;25.20;99.90
3994;DHT22;2011;48.238;13.948;2022-07-01T12:01:08;25.00;99.90
3994;DHT22;2011;48.238;13.948;2022-07-01T12:03:36;24.80;99.90
3994;DHT22;2011;48.238;13.948;2022-07-01T12:06:04;24.70;99.90
3994;DHT22;2011;48.238;13.948;2022-07-01T12:08:33;24.60;99.90
3994;DHT22;2011;48.238;13.948;2022-07-01T12:11:00;24.60;99.90
3994;DHT22;2011;48.238;13.948;2022-07-01T12:13:27;24.80;99.90
3994;DHT22;2011;48.238;13.948;2022-07-01T12:16:04;24.80;99.90
3994;DHT22;2011;48.238;13.948;2022-07-01T12:18:31;24.70;99.90
3994;DHT22;2011;48.238;13.948;2022-07-01T12:20:58;24.70;99.90
3994;DHT22;2011;48.238;13.948;2022-07-01T12:23:25;24.70;99.90
3994;DHT22;2011;48.238;13.948;2022-07-01T12:25:53;24.70;99.90
3994;DHT22;2011;48.238;13.948;2022-07-01T12:28:28;24.70;99.90
3994;DHT22;2011;48.238;13.948;2022-07-01T12:31:00;24.90;99.90
3994;DHT22;2011;48.238;13.948;2022-07-01T12:33:27;24.90;99.90
3994;DHT22;2011;48.238;13.948;2022-07-01T12:35:55;24.90;99.90
3994;DHT22;2011;48.238;13.948;2022-07-01T12:38:22;24.70;99.90
3994;DHT22;2011;48.238;13.948;2022-07-01T12:40:49;24.40;99.90
3994;DHT22;2011;48.238;13.948;2022-07-01T12:43:28;24.30;99.90
3994;DHT22;2011;48.238;13.948;2022-07-01T12:45:59;24.30;99.90
3994;DHT22;2011;48.238;13.948;2022-07-01T12:48:27;24.20;99.90
3994;DHT22;2011;48.238;13.948;2022-07-01T12:50:55;24.10;99.90
3994;DHT22;2011;48.238;13.948;2022-07-01T12:53:24;23.90;99.90
3994;DHT22;2011;48.238;13.948;2022-07-01T12:55:53;23.70;99.90
3994;DHT22;2011;48.238;13.948;2022-07-01T12:58:22;23.60;99.90
3994;DHT22;2011;48.238;13.948;2022-07-01T13:00:51;23.50;99.90
3994;DHT22;2011;48.238;13.948;2022-07-01T13:03:20;23.50;99.90
3994;DHT22;2011;48.238;13.948;2022-07-01T13:05:48;23.50;99.90
3994;DHT22;2011;48.238;13.948;2022-07-01T13:08:16;23.40;99.90
3994;DHT22;2011;48.238;13.948;2022-07-01T13:10:43;23.50;99.90
3994;DHT22;2011;48.238;13.948;2022-07-01T13:13:11;23.60;99.90
3994;DHT22;2011;48.238;13.948;2022-07-01T13:15:39;23.60;99.90
3994;DHT22;2011;48.238;13.948;2022-07-01T13:18:08;23.60;99.90
3994;DHT22;2011;48.238;13.948;2022-07-01T13:20:35;23.60;99.90
3994;DHT22;2011;48.238;13.948;2022-07-01T13:23:03;23.70;99.90
3994;DHT22;2011;48.238;13.948;2022-07-01T13:25:30;23.60;99.90
3994;DHT22;2011;48.238;13.948;2022-07-01T13:27:58;23.40;99.90
3994;DHT22;2011;48.238;13.948;2022-07-01T13:30:25;23.20;99.90
3994;DHT22;2011;48.238;13.948;2022-07-01T13:32:52;23.00;99.90
3994;DHT22;2011;48.238;13.948;2022-07-01T13:35:22;22.80;99.90
3994;DHT22;2011;48.238;13.948;2022-07-01T13:37:50;22.70;99.90
3994;DHT22;2011;48.238;13.948;2022-07-01T13:40:17;22.60;99.90
3994;DHT22;2011;48.238;13.948;2022-07-01T13:42:44;22.30;99.90
3994;DHT22;2011;48.238;13.948;2022-07-01T13:45:11;22.10;99.90
3994;DHT22;2011;48.238;13.948;2022-07-01T13:47:40;22.00;99.90
3994;DHT22;2011;48.238;13.948;2022-07-01T13:50:08;21.80;99.90
3994;DHT22;2011;48.238;13.948;2022-07-01T13:52:37;21.60;99.90
3994;DHT22;2011;48.238;13.948;2022-07-01T13:55:05;21.50;99.90
3994;DHT22;2011;48.238;13.948;2022-07-01T13:57:32;21.30;99.90
3994;DHT22;2011;48.238;13.948;2022-07-01T13:59:59;21.10;99.90
3994;DHT22;2011;48.238;13.948;2022-07-01T14:02:26;20.90;99.90
3994;DHT22;2011;48.238;13.948;2022-07-01T14:04:53;20.40;99.90
3994;DHT22;2011;48.238;13.948;2022-07-01T14:07:20;20.10;99.90
3994;DHT22;2011;48.238;13.948;2022-07-01T14:09:49;19.60;99.90
3994;DHT22;2011;48.238;13.948;2022-07-01T14:12:16;19.30;99.90
3994;DHT22;2011;48.238;13.948;2022-07-01T14:14:43;19.10;99.90
3994;DHT22;2011;48.238;13.948;2022-07-01T14:17:10;19.00;99.90
3994;DHT22;2011;48.238;13.948;2022-07-01T14:19:37;18.90;99.90
3994;DHT22;2011;48.238;13.948;2022-07-01T14:22:04;18.90;99.90
3994;DHT22;2011;48.238;13.948;2022-07-01T14:24:32;18.90;99.90
3994;DHT22;2011;48.238;13.948;2022-07-01T14:27:01;18.80;99.90
3994;DHT22;2011;48.238;13.948;2022-07-01T14:29:28;18.70;99.90
3994;DHT22;2011;48.238;13.948;2022-07-01T14:31:55;18.40;99.90
3994;DHT22;2011;48.238;13.948;2022-07-01T14:34:24;18.20;99.90
3994;DHT22;2011;48.238;13.948;2022-07-01T14:36:51;18.00;99.90
3994;DHT22;2011;48.238;13.948;2022-07-01T14:39:18;17.90;99.90
3994;DHT22;2011;48.238;13.948;2022-07-01T14:41:45;17.80;99.90
3994;DHT22;2011;48.238;13.948;2022-07-01T14:44:16;17.60;99.90
3994;DHT22;2011;48.238;13.948;2022-07-01T14:46:43;17.40;99.90
3994;DHT22;2011;48.238;13.948;2022-07-01T14:49:11;17.30;99.90
3994;DHT22;2011;48.238;13.948;2022-07-01T14:51:40;17.10;99.90
3994;DHT22;2011;48.238;13.948;2022-07-01T14:54:07;17.00;99.90
3994;DHT22;2011;48.238;13.948;2022-07-01T14:56:34;16.90;99.90
3994;DHT22;2011;48.238;13.948;2022-07-01T14:59:01;16.90;99.90
3994;DHT22;2011;48.238;13.948;2022-07-01T15:01:29;16.80;99.90
3994;DHT22;2011;48.238;13.948;2022-07-01T15:03:57;16.90;99.90
3994;DHT22;2011;48.238;13.948;2022-07-01T15:06:24;16.80;99.90
3994;DHT22;2011;48.238;13.948;2022-07-01T15:08:51;16.70;99.90
3994;DHT22;2011;48.238;13.948;2022-07-01T15:11:18;16.80;99.90
3994;DHT22;2011;48.238;13.948;2022-07-01T15:13:45;16.90;99.90
3994;DHT22;2011;48.238;13.948;2022-07-01T15:16:13;16.90;99.90
3994;DHT22;2011;48.238;13.948;2022-07-01T15:18:41;16.90;99.90
3994;DHT22;2011;48.238;13.948;2022-07-01T15:21:08;16.90;99.90
3994;DHT22;2011;48.238;13.948;2022-07-01T15:23:35;16.80;99.90
3994;DHT22;2011;48.238;13.948;2022-07-01T15:26:02;16.70;99.90
3994;DHT22;2011;48.238;13.948;2022-07-01T15:28:29;16.60;99.90
3994;DHT22;2011;48.238;13.948;2022-07-01T15:30:56;16.60;99.90
3994;DHT22;2011;48.238;13.948;2022-07-01T15:33:23;16.50;99.90
3994;DHT22;2011;48.238;13.948;2022-07-01T15:35:52;16.50;99.90
3994;DHT22;2011;48.238;13.948;2022-07-01T15:38:19;16.40;99.90
3994;DHT22;2011;48.238;13.948;2022-07-01T15:40:46;16.30;99.90
3994;DHT22;2011;48.238;13.948;2022-07-01T15:43:13;16.30;99.90
3994;DHT22;2011;48.238;13.948;2022-07-01T15:45:41;16.20;99.90
3994;DHT22;2011;48.238;13.948;2022-07-01T15:48:08;16.30;99.90
3994;DHT22;2011;48.238;13.948;2022-07-01T15:50:36;16.30;99.90
3994;DHT22;2011;48.238;13.948;2022-07-01T15:53:06;16.30;99.90